sensor_id;sensor_type;location;lat;lon;timestamp;pressure;altitude;pressure_sealevel;temperature;humidity
46394;BME280;32099;53.588;10.176;2022-12-18T00:01:25;102594.56;;;-5.40;76.04
46394;BME280;32099;53.588;10.176;2022-12-18T00:03:53;102602.59;;;-5.42;76.19
46394;BME280;32099;53.588;10.176;2022-12-18T00:06:20;102612.41;;;-5.45;75.48
46394;BME280;32099;53.588;10.176;2022-12-18T00:08:47;102618.72;;;-5.51;75.85
46394;BME280;32099;53.588;10.176;2022-12-18T00:11:13;102610.84;;;-5.54;76.39
46394;BME280;32099;53.588;10.176;2022-12-18T00:13:40;102608.97;;;-5.50;76.42
46394;BME280;32099;53.588;10.176;2022-12-18T00:16:06;102604.47;;;-5.47;76.95
46394;BME280;32099;53.588;10.176;2022-12-18T00:18:34;102599.09;;;-5.45;76.48
46394;BME280;32099;53.588;10.176;2022-12-18T00:21:00;102606.19;;;-5.44;76.24
46394;BME280;32099;53.588;10.176;2022-12-18T00:23:28;102607.97;;;-5.45;76.08
46394;BME280;32099;53.588;10.176;2022-12-18T00:25:58;102615.91;;;-5.42;76.39
46394;BME280;32099;53.588;10.176;2022-12-18T00:28:24;102621.13;;;-5.38;76.73
46394;BME280;32099;53.588;10.176;2022-12-18T00:30:49;102620.25;;;-5.39;75.90
46394;BME280;32099;53.588;10.176;2022-12-18T00:33:16;102622.94;;;-5.40;76.35
46394;BME280;32099;53.588;10.176;2022-12-18T00:35:42;102626.53;;;-5.42;76.11
46394;BME280;32099;53.588;10.176;2022-12-18T00:38:07;102631.88;;;-5.43;76.25
46394;BME280;32099;53.588;10.176;2022-12-18T00:40:32;102631.88;;;-5.43;75.97
46394;BME280;32099;53.588;10.176;2022-12-18T00:42:58;102632.75;;;-5.44;75.91
46394;BME280;32099;53.588;10.176;2022-12-18T00:45:27;102630.22;;;-5.49;75.32
46394;BME280;32099;53.588;10.176;2022-12-18T00:47:55;102629.50;;;-5.57;75.96
46394;BME280;32099;53.588;10.176;2022-12-18T00:50:21;102623.34;;;-5.59;75.97
46394;BME280;32099;53.588;10.176;2022-12-18T00:52:48;102630.47;;;-5.60;76.09
46394;BME280;32099;53.588;10.176;2022-12-18T00:55:13;102620.75;;;-5.62;76.34
46394;BME280;32099;53.588;10.176;2022-12-18T00:57:39;102614.63;;;-5.66;76.33
46394;BME280;32099;53.588;10.176;2022-12-18T01:00:06;102620.78;;;-5.64;76.33
46394;BME280;32099;53.588;10.176;2022-12-18T01:02:33;102630.56;;;-5.64;76.48
46394;BME280;32099;53.588;10.176;2022-12-18T01:04:58;102629.66;;;-5.65;76.58
46394;BME280;32099;53.588;10.176;2022-12-18T01:07:23;102629.69;;;-5.66;76.42
46394;BME280;32099;53.588;10.176;2022-12-18T01:09:49;102632.41;;;-5.69;76.47
46394;BME280;32099;53.588;10.176;2022-12-18T01:12:14;102627.19;;;-5.74;76.07
46394;BME280;32099;53.588;10.176;2022-12-18T01:14:39;102622.75;;;-5.74;76.26
46394;BME280;32099;53.588;10.176;2022-12-18T01:17:05;102631.59;;;-5.73;77.04
46394;BME280;32099;53.588;10.176;2022-12-18T01:19:30;102630.63;;;-5.69;76.73
46394;BME280;32099;53.588;10.176;2022-12-18T01:21:55;102642.94;;;-5.65;76.51
46394;BME280;32099;53.588;10.176;2022-12-18T01:24:21;102643.75;;;-5.60;76.11
46394;BME280;32099;53.588;10.176;2022-12-18T01:26:46;102629.50;;;-5.57;75.92
46394;BME280;32099;53.588;10.176;2022-12-18T01:29:12;102624.13;;;-5.54;76.09
46394;BME280;32099;53.588;10.176;2022-12-18T01:31:37;102632.03;;;-5.51;76.11
46394;BME280;32099;53.588;10.176;2022-12-18T01:34:03;102621.44;;;-5.52;76.59
46394;BME280;32099;53.588;10.176;2022-12-18T01:36:30;102626.69;;;-5.51;76.41
46394;BME280;32099;53.588;10.176;2022-12-18T01:39:03;102625.78;;;-5.50;76.54
46394;BME280;32099;53.588;10.176;2022-12-18T01:41:30;102621.28;;;-5.46;76.37
46394;BME280;32099;53.588;10.176;2022-12-18T01:47:21;102627.53;;;-5.47;76.37
46394;BME280;32099;53.588;10.176;2022-12-18T01:49:48;102623.13;;;-5.50;76.23
46394;BME280;32099;53.588;10.176;2022-12-18T01:52:14;102637.34;;;-5.51;76.41
46394;BME280;32099;53.588;10.176;2022-12-18T01:54:40;102640.88;;;-5.50;76.25
46394;BME280;32099;53.588;10.176;2022-12-18T01:57:05;102637.28;;;-5.48;76.44
46394;BME280;32099;53.588;10.176;2022-12-18T01:59:31;102646.97;;;-5.45;76.38
46394;BME280;32099;53.588;10.176;2022-12-18T02:01:58;102653.19;;;-5.45;75.59
46394;BME280;32099;53.588;10.176;2022-12-18T02:04:25;102647.91;;;-5.48;76.00
46394;BME280;32099;53.588;10.176;2022-12-18T02:06:55;102654.16;;;-5.49;75.87
46394;BME280;32099;53.588;10.176;2022-12-18T02:09:35;102656.81;;;-5.49;75.94
46394;BME280;32099;53.588;10.176;2022-12-18T02:12:21;102665.72;;;-5.51;75.91
46394;BME280;32099;53.588;10.176;2022-12-18T02:14:53;102657.00;;;-5.58;75.65
46394;BME280;32099;53.588;10.176;2022-12-18T02:17:38;102650.97;;;-5.66;76.10
46394;BME280;32099;53.588;10.176;2022-12-18T02:20:13;102644.81;;;-5.68;76.11
46394;BME280;32099;53.588;10.176;2022-12-18T02:25:40;102654.63;;;-5.74;75.48
46394;BME280;32099;53.588;10.176;2022-12-18T02:28:26;102660.03;;;-5.77;75.36
46394;BME280;32099;53.588;10.176;2022-12-18T02:30:56;102656.53;;;-5.80;75.30
46394;BME280;32099;53.588;10.176;2022-12-18T02:33:26;102661.94;;;-5.85;75.80
46394;BME280;32099;53.588;10.176;2022-12-18T02:35:54;102658.47;;;-5.89;75.61
46394;BME280;32099;53.588;10.176;2022-12-18T02:38:22;102654.09;;;-5.91;75.83
46394;BME280;32099;53.588;10.176;2022-12-18T02:40:49;102658.53;;;-5.92;75.77
46394;BME280;32099;53.588;10.176;2022-12-18T02:43:15;102659.47;;;-5.93;75.62
46394;BME280;32099;53.588;10.176;2022-12-18T02:45:47;102663.84;;;-5.92;75.42
46394;BME280;32099;53.588;10.176;2022-12-18T02:48:24;102675.41;;;-5.93;75.76
46394;BME280;32099;53.588;10.176;2022-12-18T02:51:05;102673.69;;;-5.97;75.48
46394;BME280;32099;53.588;10.176;2022-12-18T02:53:38;102669.50;;;-6.07;75.80
46394;BME280;32099;53.588;10.176;2022-12-18T02:56:12;102668.59;;;-6.06;75.88
46394;BME280;32099;53.588;10.176;2022-12-18T03:01:24;102674.75;;;-6.04;76.21
46394;BME280;32099;53.588;10.176;2022-12-18T03:03:59;102688.06;;;-6.06;76.37
46394;BME280;32099;53.588;10.176;2022-12-18T03:06:33;102689.84;;;-6.06;75.38
46394;BME280;32099;53.588;10.176;2022-12-18T03:09:14;102691.75;;;-6.13;75.71
46394;BME280;32099;53.588;10.176;2022-12-18T03:11:45;102686.44;;;-6.13;76.12
46394;BME280;32099;53.588;10.176;2022-12-18T03:14:37;102688.22;;;-6.15;75.61
46394;BME280;32099;53.588;10.176;2022-12-18T03:17:05;102690.91;;;-6.16;75.58
46394;BME280;32099;53.588;10.176;2022-12-18T03:19:40;102678.53;;;-6.19;75.80
46394;BME280;32099;53.588;10.176;2022-12-18T03:22:07;102682.19;;;-6.23;76.10
46394;BME280;32099;53.588;10.176;2022-12-18T03:24:34;102680.47;;;-6.27;76.02
46394;BME280;32099;53.588;10.176;2022-12-18T03:27:04;102682.28;;;-6.29;75.47
46394;BME280;32099;53.588;10.176;2022-12-18T03:29:36;102677.91;;;-6.32;75.33
46394;BME280;32099;53.588;10.176;2022-12-18T03:32:07;102674.34;;;-6.32;76.04
46394;BME280;32099;53.588;10.176;2022-12-18T03:34:37;102680.59;;;-6.35;75.66
46394;BME280;32099;53.588;10.176;2022-12-18T03:37:05;102682.38;;;-6.36;76.09
46394;BME280;32099;53.588;10.176;2022-12-18T03:39:31;102685.00;;;-6.34;75.92
46394;BME280;32099;53.588;10.176;2022-12-18T03:44:43;102680.63;;;-6.37;75.33
46394;BME280;32099;53.588;10.176;2022-12-18T03:47:25;102680.59;;;-6.35;75.87
46394;BME280;32099;53.588;10.176;2022-12-18T03:49:57;102674.47;;;-6.39;75.90
46394;BME280;32099;53.588;10.176;2022-12-18T03:52:41;102685.06;;;-6.37;75.77
46394;BME280;32099;53.588;10.176;2022-12-18T03:55:14;102680.63;;;-6.37;75.76
46394;BME280;32099;53.588;10.176;2022-12-18T03:57:40;102677.97;;;-6.37;76.18
46394;BME280;32099;53.588;10.176;2022-12-18T04:00:12;102674.41;;;-6.36;76.11
46394;BME280;32099;53.588;10.176;2022-12-18T04:02:44;102669.06;;;-6.34;76.41
46394;BME280;32099;53.588;10.176;2022-12-18T04:05:12;102672.63;;;-6.33;76.59
46394;BME280;32099;53.588;10.176;2022-12-18T04:07:39;102672.53;;;-6.30;76.71
46394;BME280;32099;53.588;10.176;2022-12-18T04:10:06;102670.78;;;-6.31;75.99
46394;BME280;32099;53.588;10.176;2022-12-18T04:12:36;102674.34;;;-6.31;75.83
46394;BME280;32099;53.588;10.176;2022-12-18T04:15:02;102669.03;;;-6.32;76.62
46394;BME280;32099;53.588;10.176;2022-12-18T04:17:27;102669.94;;;-6.32;76.16
46394;BME280;32099;53.588;10.176;2022-12-18T04:19:52;102667.31;;;-6.33;75.60
46394;BME280;32099;53.588;10.176;2022-12-18T04:22:18;102674.41;;;-6.36;76.02
46394;BME280;32099;53.588;10.176;2022-12-18T04:24:43;102673.53;;;-6.36;75.53
46394;BME280;32099;53.588;10.176;2022-12-18T04:27:08;102670.91;;;-6.38;76.63
46394;BME280;32099;53.588;10.176;2022-12-18T04:29:34;102673.53;;;-6.36;76.37
46394;BME280;32099;53.588;10.176;2022-12-18T04:31:59;102676.19;;;-6.34;76.03
46394;BME280;32099;53.588;10.176;2022-12-18T04:34:24;102684.19;;;-6.38;75.72
46394;BME280;32099;53.588;10.176;2022-12-18T04:36:49;102677.16;;;-6.42;75.50
46394;BME280;32099;53.588;10.176;2022-12-18T04:39:18;102682.56;;;-6.46;75.83
46394;BME280;32099;53.588;10.176;2022-12-18T04:41:43;102688.78;;;-6.49;75.99
46394;BME280;32099;53.588;10.176;2022-12-18T04:44:09;102687.94;;;-6.51;75.83
46394;BME280;32099;53.588;10.176;2022-12-18T04:46:35;102682.66;;;-6.53;75.91
46394;BME280;32099;53.588;10.176;2022-12-18T04:49:00;102681.84;;;-6.56;76.10
46394;BME280;32099;53.588;10.176;2022-12-18T04:51:25;102674.78;;;-6.59;75.65
46394;BME280;32099;53.588;10.176;2022-12-18T04:53:51;102672.16;;;-6.60;75.99
46394;BME280;32099;53.588;10.176;2022-12-18T04:56:16;102682.78;;;-6.60;75.78
46394;BME280;32099;53.588;10.176;2022-12-18T04:58:42;102684.53;;;-6.61;76.39
46394;BME280;32099;53.588;10.176;2022-12-18T05:01:09;102676.56;;;-6.59;75.91
46394;BME280;32099;53.588;10.176;2022-12-18T05:03:38;102688.06;;;-6.59;76.69
46394;BME280;32099;53.588;10.176;2022-12-18T05:06:04;102689.81;;;-6.58;76.33
46394;BME280;32099;53.588;10.176;2022-12-18T05:08:29;102695.94;;;-6.53;76.61
46394;BME280;32099;53.588;10.176;2022-12-18T05:10:58;102688.84;;;-6.51;76.34
46394;BME280;32099;53.588;10.176;2022-12-18T05:13:31;102700.28;;;-6.47;76.14
46394;BME280;32099;53.588;10.176;2022-12-18T05:15:57;102700.28;;;-6.48;76.00
46394;BME280;32099;53.588;10.176;2022-12-18T05:18:23;102695.88;;;-6.48;75.94
46394;BME280;32099;53.588;10.176;2022-12-18T05:20:52;102702.94;;;-6.47;75.98
46394;BME280;32099;53.588;10.176;2022-12-18T05:23:19;102703.00;;;-6.53;75.61
46394;BME280;32099;53.588;10.176;2022-12-18T05:25:58;102712.66;;;-6.47;76.14
46394;BME280;32099;53.588;10.176;2022-12-18T05:28:25;102721.44;;;-6.44;76.10
46394;BME280;32099;53.588;10.176;2022-12-18T05:30:53;102715.31;;;-6.46;75.74
46394;BME280;32099;53.588;10.176;2022-12-18T05:33:21;102718.88;;;-6.47;75.40
46394;BME280;32099;53.588;10.176;2022-12-18T05:35:55;102717.97;;;-6.47;75.67
46394;BME280;32099;53.588;10.176;2022-12-18T05:38:23;102711.81;;;-6.49;76.00
46394;BME280;32099;53.588;10.176;2022-12-18T05:40:49;102716.22;;;-6.48;76.58
46394;BME280;32099;53.588;10.176;2022-12-18T05:43:15;102714.44;;;-6.48;76.65
46394;BME280;32099;53.588;10.176;2022-12-18T05:45:41;102717.88;;;-6.43;76.38
46394;BME280;32099;53.588;10.176;2022-12-18T05:48:07;102727.56;;;-6.39;76.33
46394;BME280;32099;53.588;10.176;2022-12-18T05:50:34;102727.53;;;-6.36;76.07
46394;BME280;32099;53.588;10.176;2022-12-18T05:53:00;102726.63;;;-6.34;76.09
46394;BME280;32099;53.588;10.176;2022-12-18T05:55:26;102726.63;;;-6.36;75.98
46394;BME280;32099;53.588;10.176;2022-12-18T05:57:51;102722.22;;;-6.37;76.35
46394;BME280;32099;53.588;10.176;2022-12-18T06:00:16;102718.72;;;-6.38;76.06
46394;BME280;32099;53.588;10.176;2022-12-18T06:02:42;102725.78;;;-6.38;75.70
46394;BME280;32099;53.588;10.176;2022-12-18T06:05:11;102724.97;;;-6.40;75.83
46394;BME280;32099;53.588;10.176;2022-12-18T06:07:37;102718.75;;;-6.41;75.31
46394;BME280;32099;53.588;10.176;2022-12-18T06:10:02;102712.66;;;-6.46;75.26
46394;BME280;32099;53.588;10.176;2022-12-18T06:12:28;102724.25;;;-6.52;75.13
46394;BME280;32099;53.588;10.176;2022-12-18T06:14:53;102728.69;;;-6.55;75.83
46394;BME280;32099;53.588;10.176;2022-12-18T06:17:18;102735.84;;;-6.57;74.89
46394;BME280;32099;53.588;10.176;2022-12-18T06:19:44;102727.91;;;-6.60;75.10
46394;BME280;32099;53.588;10.176;2022-12-18T06:22:09;102736.84;;;-6.66;75.69
46394;BME280;32099;53.588;10.176;2022-12-18T06:24:34;102736.03;;;-6.71;75.17
46394;BME280;32099;53.588;10.176;2022-12-18T06:27:00;102744.91;;;-6.74;75.82
46394;BME280;32099;53.588;10.176;2022-12-18T06:29:25;102752.00;;;-6.76;75.72
46394;BME280;32099;53.588;10.176;2022-12-18T06:31:50;102746.75;;;-6.77;75.37
46394;BME280;32099;53.588;10.176;2022-12-18T06:34:15;102749.44;;;-6.80;75.87
46394;BME280;32099;53.588;10.176;2022-12-18T06:36:41;102750.31;;;-6.82;76.31
46394;BME280;32099;53.588;10.176;2022-12-18T06:39:06;102751.22;;;-6.81;76.39
46394;BME280;32099;53.588;10.176;2022-12-18T06:41:31;102753.84;;;-6.79;76.00
46394;BME280;32099;53.588;10.176;2022-12-18T06:43:57;102758.25;;;-6.78;75.63
46394;BME280;32099;53.588;10.176;2022-12-18T06:46:22;102757.38;;;-6.80;75.27
46394;BME280;32099;53.588;10.176;2022-12-18T06:48:48;102760.94;;;-6.82;75.56
46394;BME280;32099;53.588;10.176;2022-12-18T06:51:18;102757.41;;;-6.84;75.76
46394;BME280;32099;53.588;10.176;2022-12-18T06:53:49;102760.06;;;-6.84;76.02
46394;BME280;32099;53.588;10.176;2022-12-18T06:56:14;102761.84;;;-6.83;76.45
46394;BME280;32099;53.588;10.176;2022-12-18T06:58:40;102761.84;;;-6.83;76.47
46394;BME280;32099;53.588;10.176;2022-12-18T07:01:06;102753.84;;;-6.79;76.65
46394;BME280;32099;53.588;10.176;2022-12-18T07:03:35;102756.47;;;-6.76;76.89
46394;BME280;32099;53.588;10.176;2022-12-18T07:06:00;102759.91;;;-6.71;76.61
46394;BME280;32099;53.588;10.176;2022-12-18T07:08:26;102759.00;;;-6.69;76.51
46394;BME280;32099;53.588;10.176;2022-12-18T07:10:51;102751.88;;;-6.65;76.95
46394;BME280;32099;53.588;10.176;2022-12-18T07:13:17;102744.75;;;-6.61;77.08
46394;BME280;32099;53.588;10.176;2022-12-18T07:15:43;102743.81;;;-6.57;76.78
46394;BME280;32099;53.588;10.176;2022-12-18T07:18:08;102750.81;;;-6.53;77.10
46394;BME280;32099;53.588;10.176;2022-12-18T07:20:34;102761.34;;;-6.48;76.87
46394;BME280;32099;53.588;10.176;2022-12-18T07:23:01;102768.41;;;-6.46;76.23
46394;BME280;32099;53.588;10.176;2022-12-18T07:25:27;102764.88;;;-6.45;76.24
46394;BME280;32099;53.588;10.176;2022-12-18T07:27:52;102768.38;;;-6.44;76.15
46394;BME280;32099;53.588;10.176;2022-12-18T07:30:18;102772.78;;;-6.43;76.26
46394;BME280;32099;53.588;10.176;2022-12-18T07:32:43;102764.78;;;-6.40;76.12
46394;BME280;32099;53.588;10.176;2022-12-18T07:35:08;102783.38;;;-6.40;75.72
46394;BME280;32099;53.588;10.176;2022-12-18T07:37:33;102782.50;;;-6.44;76.06
46394;BME280;32099;53.588;10.176;2022-12-18T07:39:59;102784.28;;;-6.43;75.85
46394;BME280;32099;53.588;10.176;2022-12-18T07:42:24;102793.09;;;-6.41;76.00
46394;BME280;32099;53.588;10.176;2022-12-18T07:44:55;102784.22;;;-6.40;76.37
46394;BME280;32099;53.588;10.176;2022-12-18T07:47:21;102785.09;;;-6.38;75.79
46394;BME280;32099;53.588;10.176;2022-12-18T07:49:47;102795.69;;;-6.36;75.87
46394;BME280;32099;53.588;10.176;2022-12-18T07:52:12;102799.19;;;-6.34;75.55
46394;BME280;32099;53.588;10.176;2022-12-18T07:54:37;102790.38;;;-6.34;76.01
46394;BME280;32099;53.588;10.176;2022-12-18T07:57:03;102797.44;;;-6.35;75.94
46394;BME280;32099;53.588;10.176;2022-12-18T07:59:28;102795.63;;;-6.31;76.43
46394;BME280;32099;53.588;10.176;2022-12-18T08:01:54;102794.72;;;-6.30;75.78
46394;BME280;32099;53.588;10.176;2022-12-18T08:04:19;102801.78;;;-6.29;75.49
46394;BME280;32099;53.588;10.176;2022-12-18T08:06:44;102802.69;;;-6.30;75.67
46394;BME280;32099;53.588;10.176;2022-12-18T08:09:09;102803.56;;;-6.31;76.11
46394;BME280;32099;53.588;10.176;2022-12-18T08:11:35;102800.03;;;-6.30;76.01
46394;BME280;32099;53.588;10.176;2022-12-18T08:14:00;102796.47;;;-6.28;76.03
46394;BME280;32099;53.588;10.176;2022-12-18T08:16:26;102798.19;;;-6.25;75.91
46394;BME280;32099;53.588;10.176;2022-12-18T08:18:52;102795.47;;;-6.21;76.24
46394;BME280;32099;53.588;10.176;2022-12-18T08:21:25;102789.22;;;-6.18;76.11
46394;BME280;32099;53.588;10.176;2022-12-18T08:23:52;102787.34;;;-6.11;76.19
46394;BME280;32099;53.588;10.176;2022-12-18T08:26:19;102787.25;;;-6.05;76.33
46394;BME280;32099;53.588;10.176;2022-12-18T08:28:45;102787.09;;;-5.99;76.49
46394;BME280;32099;53.588;10.176;2022-12-18T08:31:10;102788.69;;;-5.89;75.91
46394;BME280;32099;53.588;10.176;2022-12-18T08:33:36;102791.16;;;-5.76;76.32
46394;BME280;32099;53.588;10.176;2022-12-18T08:36:03;102782.00;;;-5.61;75.86
46394;BME280;32099;53.588;10.176;2022-12-18T08:38:29;102782.59;;;-5.44;75.57
46394;BME280;32099;53.588;10.176;2022-12-18T08:40:58;102781.47;;;-5.32;75.27
46394;BME280;32099;53.588;10.176;2022-12-18T08:43:28;102786.44;;;-5.13;75.10
46394;BME280;32099;53.588;10.176;2022-12-18T08:46:15;102783.44;;;-4.98;74.86
46394;BME280;32099;53.588;10.176;2022-12-18T08:48:41;102788.50;;;-4.84;74.81
46394;BME280;32099;53.588;10.176;2022-12-18T08:51:06;102783.81;;;-4.74;74.64
46394;BME280;32099;53.588;10.176;2022-12-18T08:53:31;102784.41;;;-4.59;74.02
46394;BME280;32099;53.588;10.176;2022-12-18T08:55:57;102788.50;;;-4.44;73.81
46394;BME280;32099;53.588;10.176;2022-12-18T08:58:22;102791.03;;;-4.38;73.25
46394;BME280;32099;53.588;10.176;2022-12-18T09:00:48;102786.53;;;-4.36;73.31
46394;BME280;32099;53.588;10.176;2022-12-18T09:03:14;102782.03;;;-4.34;73.12
46394;BME280;32099;53.588;10.176;2022-12-18T09:05:41;102780.38;;;-4.38;73.43
46394;BME280;32099;53.588;10.176;2022-12-18T09:08:06;102776.81;;;-4.39;73.42
46394;BME280;32099;53.588;10.176;2022-12-18T09:10:31;102776.94;;;-4.43;73.34
46394;BME280;32099;53.588;10.176;2022-12-18T09:12:57;102766.38;;;-4.48;73.79
46394;BME280;32099;53.588;10.176;2022-12-18T09:15:22;102782.16;;;-4.39;73.83
46394;BME280;32099;53.588;10.176;2022-12-18T09:17:47;102783.78;;;-4.31;73.67
46394;BME280;32099;53.588;10.176;2022-12-18T09:20:14;102784.28;;;-4.17;73.38
46394;BME280;32099;53.588;10.176;2022-12-18T09:22:40;102785.53;;;-3.94;73.37
46394;BME280;32099;53.588;10.176;2022-12-18T09:25:05;102786.66;;;-3.68;73.59
46394;BME280;32099;53.588;10.176;2022-12-18T09:27:32;102788.78;;;-3.48;72.03
46394;BME280;32099;53.588;10.176;2022-12-18T09:29:58;102788.41;;;-3.34;72.64
46394;BME280;32099;53.588;10.176;2022-12-18T09:32:23;102780.84;;;-3.18;72.42
46394;BME280;32099;53.588;10.176;2022-12-18T09:34:48;102784.91;;;-3.05;71.22
46394;BME280;32099;53.588;10.176;2022-12-18T09:37:14;102777.47;;;-2.93;71.22
46394;BME280;32099;53.588;10.176;2022-12-18T09:39:39;102783.41;;;-2.84;71.29
46394;BME280;32099;53.588;10.176;2022-12-18T09:42:04;102782.31;;;-2.76;70.89
46394;BME280;32099;53.588;10.176;2022-12-18T09:44:39;102781.53;;;-2.80;70.51
46394;BME280;32099;53.588;10.176;2022-12-18T09:50:04;102775.53;;;-2.88;71.21
46394;BME280;32099;53.588;10.176;2022-12-18T09:52:44;102781.13;;;-2.98;70.61
46394;BME280;32099;53.588;10.176;2022-12-18T09:55:30;102783.25;;;-3.09;71.23
46394;BME280;32099;53.588;10.176;2022-12-18T09:58:04;102787.00;;;-3.16;72.26
46394;BME280;32099;53.588;10.176;2022-12-18T10:00:36;102792.56;;;-3.24;71.90
46394;BME280;32099;53.588;10.176;2022-12-18T10:03:12;102787.34;;;-3.29;72.76
46394;BME280;32099;53.588;10.176;2022-12-18T10:05:58;102791.84;;;-3.29;72.47
46394;BME280;32099;53.588;10.176;2022-12-18T10:08:40;102787.31;;;-3.27;72.87
46394;BME280;32099;53.588;10.176;2022-12-18T10:13:55;102793.53;;;-3.27;71.62
46394;BME280;32099;53.588;10.176;2022-12-18T10:19:02;102793.59;;;-3.30;71.62
46394;BME280;32099;53.588;10.176;2022-12-18T10:22:07;102782.91;;;-3.28;72.15
46394;BME280;32099;53.588;10.176;2022-12-18T10:24:38;102776.38;;;-3.18;72.77
46394;BME280;32099;53.588;10.176;2022-12-18T10:27:21;102784.22;;;-3.12;72.35
46394;BME280;32099;53.588;10.176;2022-12-18T10:29:49;102793.97;;;-3.11;72.05
46394;BME280;32099;53.588;10.176;2022-12-18T10:32:16;102803.81;;;-3.13;71.00
46394;BME280;32099;53.588;10.176;2022-12-18T10:34:47;102801.97;;;-3.11;72.46
46394;BME280;32099;53.588;10.176;2022-12-18T10:37:16;102807.25;;;-3.09;71.94
46394;BME280;32099;53.588;10.176;2022-12-18T10:39:43;102809.06;;;-3.10;72.08
46394;BME280;32099;53.588;10.176;2022-12-18T10:42:11;102804.56;;;-3.07;71.13
46394;BME280;32099;53.588;10.176;2022-12-18T10:44:42;102799.22;;;-3.07;70.77
46394;BME280;32099;53.588;10.176;2022-12-18T10:47:11;102797.41;;;-3.07;71.77
46394;BME280;32099;53.588;10.176;2022-12-18T10:49:41;102792.88;;;-3.03;71.67
46394;BME280;32099;53.588;10.176;2022-12-18T10:52:14;102790.91;;;-2.97;71.10
46394;BME280;32099;53.588;10.176;2022-12-18T10:54:55;102786.44;;;-2.96;71.29
46394;BME280;32099;53.588;10.176;2022-12-18T10:57:34;102781.81;;;-2.89;71.10
46394;BME280;32099;53.588;10.176;2022-12-18T11:00:20;102782.59;;;-2.87;71.49
46394;BME280;32099;53.588;10.176;2022-12-18T11:02:53;102788.69;;;-2.82;70.83
46394;BME280;32099;53.588;10.176;2022-12-18T11:05:27;102764.47;;;-2.76;71.50
46394;BME280;32099;53.588;10.176;2022-12-18T11:08:01;102767.78;;;-2.68;71.43
46394;BME280;32099;53.588;10.176;2022-12-18T11:10:31;102770.31;;;-2.63;70.90
46394;BME280;32099;53.588;10.176;2022-12-18T11:13:11;102778.13;;;-2.57;71.70
46394;BME280;32099;53.588;10.176;2022-12-18T11:15:43;102774.41;;;-2.51;71.92
46394;BME280;32099;53.588;10.176;2022-12-18T11:21:08;102773.47;;;-2.50;70.40
46394;BME280;32099;53.588;10.176;2022-12-18T11:23:36;102761.84;;;-2.47;70.98
46394;BME280;32099;53.588;10.176;2022-12-18T11:26:09;102766.13;;;-2.42;70.77
46394;BME280;32099;53.588;10.176;2022-12-18T11:28:39;102773.06;;;-2.36;70.66
46394;BME280;32099;53.588;10.176;2022-12-18T11:33:41;102767.44;;;-2.28;68.52
46394;BME280;32099;53.588;10.176;2022-12-18T11:36:10;102755.00;;;-2.29;70.29
46394;BME280;32099;53.588;10.176;2022-12-18T11:38:37;102750.38;;;-2.24;71.27
46394;BME280;32099;53.588;10.176;2022-12-18T11:41:07;102749.38;;;-2.20;69.67
46394;BME280;32099;53.588;10.176;2022-12-18T11:43:55;102745.66;;;-2.16;69.67
46394;BME280;32099;53.588;10.176;2022-12-18T11:46:37;102750.91;;;-2.13;70.75
46394;BME280;32099;53.588;10.176;2022-12-18T11:49:13;102748.06;;;-2.08;70.10
46394;BME280;32099;53.588;10.176;2022-12-18T11:51:48;102744.38;;;-2.04;70.63
46394;BME280;32099;53.588;10.176;2022-12-18T11:54:20;102742.41;;;-1.99;69.22
46394;BME280;32099;53.588;10.176;2022-12-18T11:56:46;102740.63;;;-1.98;70.35
46394;BME280;32099;53.588;10.176;2022-12-18T11:59:19;102733.47;;;-1.98;69.52
46394;BME280;32099;53.588;10.176;2022-12-18T12:02:03;102737.06;;;-1.99;69.63
46394;BME280;32099;53.588;10.176;2022-12-18T12:10:01;102720.84;;;-1.94;68.32
46394;BME280;32099;53.588;10.176;2022-12-18T12:21:01;102706.47;;;-1.90;68.46
46394;BME280;32099;53.588;10.176;2022-12-18T12:23:34;102702.88;;;-1.89;68.99
46394;BME280;32099;53.588;10.176;2022-12-18T12:26:35;102696.59;;;-1.88;68.90
46394;BME280;32099;53.588;10.176;2022-12-18T12:29:17;102697.50;;;-1.89;68.40
46394;BME280;32099;53.588;10.176;2022-12-18T12:32:07;102701.78;;;-1.83;68.92
46394;BME280;32099;53.588;10.176;2022-12-18T12:37:40;102690.16;;;-1.82;69.45
46394;BME280;32099;53.588;10.176;2022-12-18T12:40:18;102686.59;;;-1.83;68.50
46394;BME280;32099;53.588;10.176;2022-12-18T12:42:45;102688.47;;;-1.85;67.84
46394;BME280;32099;53.588;10.176;2022-12-18T12:45:36;102678.63;;;-1.84;68.90
46394;BME280;32099;53.588;10.176;2022-12-18T12:48:11;102660.16;;;-1.92;67.97
46394;BME280;32099;53.588;10.176;2022-12-18T12:50:43;102664.69;;;-1.94;67.78
46394;BME280;32099;53.588;10.176;2022-12-18T12:53:21;102662.84;;;-1.92;68.80
46394;BME280;32099;53.588;10.176;2022-12-18T12:55:51;102644.84;;;-1.87;68.75
46394;BME280;32099;53.588;10.176;2022-12-18T12:58:23;102646.44;;;-1.81;68.06
46394;BME280;32099;53.588;10.176;2022-12-18T13:01:00;102643.56;;;-1.77;69.16
46394;BME280;32099;53.588;10.176;2022-12-18T13:09:03;102649.16;;;-1.59;68.90
46394;BME280;32099;53.588;10.176;2022-12-18T13:14:32;102630.25;;;-1.55;69.20
46394;BME280;32099;53.588;10.176;2022-12-18T13:19:44;102622.38;;;-1.58;68.40
46394;BME280;32099;53.588;10.176;2022-12-18T13:22:21;102629.16;;;-1.49;69.38
46394;BME280;32099;53.588;10.176;2022-12-18T13:24:49;102628.94;;;-1.43;69.07
46394;BME280;32099;53.588;10.176;2022-12-18T13:35:39;102641.91;;;-1.32;69.32
46394;BME280;32099;53.588;10.176;2022-12-18T13:38:32;102635.75;;;-1.34;69.21
46394;BME280;32099;53.588;10.176;2022-12-18T13:41:03;102622.59;;;-1.40;67.97
46394;BME280;32099;53.588;10.176;2022-12-18T13:43:47;102619.28;;;-1.47;68.64
46394;BME280;32099;53.588;10.176;2022-12-18T13:46:30;102623.88;;;-1.50;70.13
46394;BME280;32099;53.588;10.176;2022-12-18T13:51:42;102615.44;;;-1.63;69.91
46394;BME280;32099;53.588;10.176;2022-12-18T13:56:43;102622.75;;;-1.68;69.86
46394;BME280;32099;53.588;10.176;2022-12-18T14:06:52;102645.97;;;-1.69;69.71